Time;durP1;ratioP1;P1;durP2;ratioP2;P2;SDS_P1;SDS_P2;PMS_P1;PMS_P2;Temp;Humidity;BMP_temperature;BMP_pressure;BME280_temperature;BME280_humidity;BME280_pressure;Samples;Min_cycle;Max_cycle;Signal;HPM_P1;HPM_P2
2023/11/13 00:02:13;;;;;;;17.77;13.45;;;205.30;2252.80;;;;;;5058840;28;20057;-63
2023/11/13 00:04:39;;;;;;;57.78;31.05;;;205.50;2252.80;;;;;;5060139;28;20438;-62
2023/11/13 00:07:04;;;;;;;83.53;43.58;;;205.70;2252.80;;;;;;5058979;28;20062;-60
2023/11/13 00:09:30;;;;;;;94.07;53.47;;;230.50;2252.80;;;;;;5059133;28;20598;-60
2023/11/13 00:11:56;;;;;;;22.58;16.02;;;230.70;2252.80;;;;;;5057470;28;20035;-61
2023/11/13 00:14:22;;;;;;;31.27;18.15;;;230.70;2252.80;;;;;;5057678;28;20453;-60
2023/11/13 00:16:48;;;;;;;35.03;19.17;;;230.80;2252.80;;;;;;5057885;28;20024;-65
2023/11/13 00:19:15;;;;;;;19.83;12.68;;;231.00;2252.80;;;;;;5059788;28;20028;-66
2023/11/13 00:21:41;;;;;;;18.48;12.88;;;230.90;2252.80;;;;;;5059665;28;20434;-63
2023/11/13 00:24:07;;;;;;;19.95;12.50;;;230.90;2252.80;;;;;;5057193;28;20032;-60
2023/11/13 00:26:33;;;;;;;13.30;9.73;;;230.80;2252.80;;;;;;5057872;28;20059;-62
2023/11/13 00:29:01;;;;;;;15.02;9.85;;;230.60;2252.80;;;;;;5058529;28;20025;-64
2023/11/13 00:31:27;;;;;;;14.27;9.85;;;230.50;2252.80;;;;;;5059486;28;20650;-59
2023/11/13 00:33:53;;;;;;;17.52;11.60;;;205.70;2252.80;;;;;;5058267;28;20191;-60
2023/11/13 00:36:19;;;;;;;20.73;12.13;;;205.60;2252.80;;;;;;5058447;28;20105;-64
2023/11/13 00:38:44;;;;;;;16.35;11.60;;;205.60;2252.80;;;;;;5059486;28;20021;-60
2023/11/13 00:41:13;;;;;;;19.67;12.68;;;205.60;2252.80;;;;;;5055155;28;20025;-62
2023/11/13 00:43:40;;;;;;;15.60;12.23;;;205.70;2252.80;;;;;;5058020;28;20025;-61
2023/11/13 00:46:07;;;;;;;44.30;29.38;;;230.50;2252.80;;;;;;5059738;28;20603;-61
2023/11/13 00:48:33;;;;;;;22.70;14.40;;;230.70;2252.80;;;;;;5057875;28;20022;-62
2023/11/13 00:51:00;;;;;;;21.85;13.13;;;230.70;2252.80;;;;;;5057940;28;20146;-60
2023/11/13 00:53:26;;;;;;;17.23;10.73;;;230.70;2252.80;;;;;;5059332;28;20013;-61
2023/11/13 00:55:52;;;;;;;17.17;12.23;;;230.60;2252.80;;;;;;5057698;28;20040;-60
2023/11/13 00:58:18;;;;;;;17.15;12.45;;;230.50;2252.80;;;;;;5058289;28;20459;-64
2023/11/13 01:00:44;;;;;;;17.88;11.02;;;230.50;2252.80;;;;;;5058935;28;20033;-64
2023/11/13 01:03:10;;;;;;;22.00;13.52;;;230.40;2252.80;;;;;;5038851;28;20079;-63
2023/11/13 01:05:35;;;;;;;17.38;12.20;;;230.40;2252.80;;;;;;5057326;28;20607;-62
2023/11/13 01:08:05;;;;;;;21.50;13.43;;;205.70;2252.80;;;;;;5058671;28;20025;-62
2023/11/13 01:10:31;;;;;;;18.10;12.13;;;205.60;2252.80;;;;;;5054657;28;20486;-61
2023/11/13 01:12:57;;;;;;;30.55;19.67;;;205.50;2252.80;;;;;;5058212;28;20016;-59
2023/11/13 01:15:22;;;;;;;34.47;23.45;;;205.40;2252.80;;;;;;5058722;28;20035;-62
2023/11/13 01:17:48;;;;;;;27.08;17.33;;;205.40;2252.80;;;;;;5056449;28;20037;-64
2023/11/13 01:20:14;;;;;;;26.85;14.30;;;205.40;2252.80;;;;;;5058580;28;20051;-61
2023/11/13 01:22:40;;;;;;;17.98;12.88;;;205.40;2252.80;;;;;;5051648;28;20033;-62
2023/11/13 01:25:07;;;;;;;18.92;12.18;;;205.40;2252.80;;;;;;5048029;28;20036;-60
2023/11/13 01:27:33;;;;;;;23.23;13.60;;;205.30;2252.80;;;;;;5029650;28;20025;-60
2023/11/13 01:29:58;;;;;;;17.80;10.32;;;205.30;2252.80;;;;;;5046995;28;20035;-65
2023/11/13 01:32:24;;;;;;;11.80;7.78;;;205.30;2252.80;;;;;;5047006;28;20037;-61
2023/11/13 01:34:50;;;;;;;13.70;10.00;;;205.30;2252.80;;;;;;5047164;28;20468;-67
2023/11/13 01:37:17;;;;;;;15.93;9.82;;;205.30;2252.80;;;;;;5030225;28;20083;-65
2023/11/13 01:39:43;;;;;;;16.08;9.43;;;205.30;2252.80;;;;;;5047987;28;20029;-61
2023/11/13 01:42:09;;;;;;;16.23;8.55;;;205.40;2252.80;;;;;;5049921;28;20124;-65
2023/11/13 01:44:35;;;;;;;13.80;8.68;;;205.30;2252.80;;;;;;5050159;28;20017;-62
2023/11/13 01:47:02;;;;;;;16.00;8.35;;;205.30;2252.80;;;;;;5049938;28;20096;-67
2023/11/13 01:49:28;;;;;;;12.70;8.45;;;205.30;2252.80;;;;;;5051249;28;20083;-63
2023/11/13 01:51:54;;;;;;;16.92;8.70;;;205.20;2252.80;;;;;;5048930;28;20029;-62
2023/11/13 01:54:23;;;;;;;15.88;10.73;;;205.10;2252.80;;;;;;5046507;28;20040;-63
2023/11/13 01:56:50;;;;;;;22.63;14.48;;;205.10;2252.80;;;;;;5047745;28;20473;-60
2023/11/13 01:59:17;;;;;;;86.55;46.80;;;205.00;2252.80;;;;;;5048229;28;20037;-62
2023/11/13 02:01:43;;;;;;;61.15;31.05;;;205.10;2252.80;;;;;;5047546;28;20045;-62
2023/11/13 02:04:09;;;;;;;40.03;20.23;;;205.00;2252.80;;;;;;5047231;28;20045;-58
2023/11/13 02:06:35;;;;;;;41.08;23.52;;;205.10;2252.80;;;;;;5047445;28;20025;-65
2023/11/13 02:09:00;;;;;;;41.38;22.35;;;205.00;2252.80;;;;;;5049267;28;20051;-60
2023/11/13 02:11:26;;;;;;;33.53;20.15;;;205.00;2252.80;;;;;;5048699;28;20025;-60
2023/11/13 02:13:55;;;;;;;36.80;18.83;;;205.00;2252.80;;;;;;5048872;28;20029;-62
2023/11/13 02:16:21;;;;;;;31.88;16.77;;;205.00;2252.80;;;;;;5047826;28;20128;-60
2023/11/13 02:18:47;;;;;;;21.15;13.20;;;205.00;2252.80;;;;;;5048713;28;20100;-62
2023/11/13 02:21:13;;;;;;;17.52;12.60;;;204.90;2252.80;;;;;;5048931;28;20423;-60
2023/11/13 02:23:39;;;;;;;14.35;9.05;;;204.90;2252.80;;;;;;5048568;28;20112;-60
2023/11/13 02:26:16;;;;;;;13.77;8.88;;;180.10;2252.80;;;;;;5048694;28;20021;-59
2023/11/13 02:28:42;;;;;;;11.95;8.55;;;180.00;2252.80;;;;;;5049101;28;20029;-60
2023/11/13 02:31:09;;;;;;;19.13;9.57;;;179.90;2252.80;;;;;;5049028;28;20029;-62
2023/11/13 02:33:35;;;;;;;19.75;15.63;;;180.00;2252.80;;;;;;5049248;28;20132;-62
2023/11/13 02:36:00;;;;;;;18.00;15.48;;;179.90;2252.80;;;;;;5048925;28;20108;-62
2023/11/13 02:38:26;;;;;;;17.63;15.32;;;179.80;2252.80;;;;;;5049156;28;20120;-61
2023/11/13 02:40:52;;;;;;;15.95;12.23;;;179.90;2252.80;;;;;;5049216;28;20017;-63
2023/11/13 02:43:18;;;;;;;12.57;8.95;;;179.80;2252.80;;;;;;5048849;28;20125;-61
2023/11/13 02:45:44;;;;;;;12.07;7.22;;;179.90;2252.80;;;;;;5049028;28;20029;-60
2023/11/13 02:48:09;;;;;;;10.88;7.40;;;179.80;2252.80;;;;;;5049075;28;20033;-62
2023/11/13 02:50:35;;;;;;;10.88;6.85;;;179.80;2252.80;;;;;;5050252;28;20027;-61
2023/11/13 02:53:01;;;;;;;9.77;7.03;;;179.80;2252.80;;;;;;5052950;28;20029;-62
2023/11/13 02:55:27;;;;;;;9.05;6.50;;;179.70;2252.80;;;;;;5052707;28;20402;-63
2023/11/13 02:57:54;;;;;;;12.60;7.43;;;179.60;2252.80;;;;;;5053156;28;20519;-63
2023/11/13 03:00:20;;;;;;;14.52;7.93;;;179.60;2252.80;;;;;;5052993;28;20029;-63
2023/11/13 03:02:49;;;;;;;7.88;6.22;;;179.60;2252.80;;;;;;5053154;28;20069;-61
2023/11/13 03:05:16;;;;;;;9.90;5.97;;;179.70;2252.80;;;;;;5052512;28;20021;-63
2023/11/13 03:07:43;;;;;;;8.77;5.30;;;179.70;2252.80;;;;;;5052597;28;20506;-60
2023/11/13 03:10:09;;;;;;;10.27;5.55;;;179.60;2252.80;;;;;;5052504;28;20100;-64
2023/11/13 03:12:41;;;;;;;8.77;5.40;;;179.60;2252.80;;;;;;5052522;28;20051;-65
2023/11/13 03:15:09;;;;;;;9.38;5.75;;;179.70;2252.80;;;;;;5052396;28;20025;-63
2023/11/13 03:17:35;;;;;;;8.95;4.85;;;179.60;2252.80;;;;;;5052417;28;20065;-66
2023/11/13 03:20:03;;;;;;;12.07;5.55;;;179.50;2252.80;;;;;;5052217;28;20017;-67
2023/11/13 03:22:28;;;;;;;8.88;5.75;;;179.60;2252.80;;;;;;5052346;28;20036;-63
2023/11/13 03:24:54;;;;;;;10.68;5.07;;;179.70;2252.80;;;;;;5052149;28;20375;-64
2023/11/13 03:27:20;;;;;;;9.48;5.03;;;179.90;2252.80;;;;;;5052008;28;20075;-63
2023/11/13 03:29:46;;;;;;;9.02;4.60;;;180.00;2252.80;;;;;;5052071;28;20017;-64
2023/11/13 03:32:11;;;;;;;9.65;4.30;;;180.00;2252.80;;;;;;5051947;28;20053;-64
2023/11/13 03:34:37;;;;;;;11.43;4.15;;;180.10;2252.80;;;;;;5052051;28;20029;-63
2023/11/13 03:37:03;;;;;;;7.63;4.28;;;204.90;2252.80;;;;;;5052157;28;20025;-64
2023/11/13 03:39:29;;;;;;;9.20;5.00;;;205.00;2252.80;;;;;;5051830;28;20025;-64
2023/11/13 03:41:55;;;;;;;21.17;9.90;;;205.00;2252.80;;;;;;5052015;28;20067;-64
2023/11/13 03:44:21;;;;;;;16.67;9.25;;;205.00;2252.80;;;;;;5051877;28;20449;-63
2023/11/13 03:46:48;;;;;;;9.60;4.78;;;205.00;2252.80;;;;;;5051651;28;20021;-62
2023/11/13 03:49:14;;;;;;;8.23;3.85;;;204.90;2252.80;;;;;;5051893;28;20023;-64
2023/11/13 03:51:39;;;;;;;6.78;4.80;;;204.90;2252.80;;;;;;5051619;28;20108;-65
2023/11/13 03:54:05;;;;;;;8.75;4.93;;;205.00;2252.80;;;;;;5051702;28;20022;-62
2023/11/13 03:56:31;;;;;;;7.13;4.93;;;204.90;2252.80;;;;;;5051388;28;20021;-64
2023/11/13 03:58:57;;;;;;;7.13;4.70;;;204.90;2252.80;;;;;;5051449;28;20021;-61
2023/11/13 04:01:22;;;;;;;7.03;4.85;;;205.00;2252.80;;;;;;5050825;28;20053;-62
2023/11/13 04:03:48;;;;;;;9.80;5.22;;;205.00;2252.80;;;;;;5051347;28;20044;-63
2023/11/13 04:06:14;;;;;;;10.50;5.35;;;204.90;2252.80;;;;;;5051380;28;20025;-59
2023/11/13 04:08:40;;;;;;;9.23;4.70;;;204.90;2252.80;;;;;;5051372;28;20095;-66
2023/11/13 04:11:06;;;;;;;7.20;4.80;;;204.80;2252.80;;;;;;5051353;28;20031;-63
2023/11/13 04:13:34;;;;;;;7.90;5.10;;;204.80;2252.80;;;;;;5051417;28;20029;-64
2023/11/13 04:16:03;;;;;;;7.38;4.53;;;180.10;2252.80;;;;;;5051127;28;20094;-60
2023/11/13 04:18:31;;;;;;;6.38;4.07;;;180.10;2252.80;;;;;;5051198;28;20024;-64
2023/11/13 04:20:57;;;;;;;7.30;4.10;;;180.00;2252.80;;;;;;5051085;28;20025;-64
2023/11/13 04:23:23;;;;;;;7.72;4.18;;;180.10;2252.80;;;;;;5050957;28;20091;-65
2023/11/13 04:25:50;;;;;;;7.13;5.03;;;180.10;2252.80;;;;;;5032472;28;20033;-64
2023/11/13 04:28:18;;;;;;;7.13;4.53;;;180.10;2252.80;;;;;;5051082;28;20033;-64
2023/11/13 04:30:43;;;;;;;8.70;4.55;;;180.10;2252.80;;;;;;5050924;28;20021;-65
2023/11/13 04:33:09;;;;;;;6.72;4.35;;;180.10;2252.80;;;;;;5050935;28;20039;-65
2023/11/13 04:35:35;;;;;;;7.07;4.63;;;180.10;2252.80;;;;;;5051028;28;20025;-65
2023/11/13 04:38:01;;;;;;;10.52;3.95;;;180.10;2252.80;;;;;;5050684;28;20029;-64
2023/11/13 04:40:26;;;;;;;7.60;4.40;;;180.00;2252.80;;;;;;5051128;28;20108;-64
2023/11/13 04:42:52;;;;;;;14.75;7.88;;;180.10;2252.80;;;;;;5050759;28;20379;-66
2023/11/13 04:45:18;;;;;;;12.88;6.57;;;180.10;2252.80;;;;;;5050591;28;20505;-63
2023/11/13 04:47:44;;;;;;;10.45;5.15;;;179.90;2252.80;;;;;;5050774;28;20033;-64
2023/11/13 04:50:10;;;;;;;7.50;4.55;;;179.90;2252.80;;;;;;5050544;28;20490;-66
2023/11/13 04:52:36;;;;;;;7.43;3.88;;;179.80;2252.80;;;;;;5050691;28;20029;-61
2023/11/13 04:55:01;;;;;;;4.93;3.15;;;179.50;2252.80;;;;;;5050377;28;20025;-65
2023/11/13 04:57:27;;;;;;;7.05;3.30;;;179.40;2252.80;;;;;;5050576;28;20044;-64
2023/11/13 04:59:53;;;;;;;8.60;5.93;;;179.40;2252.80;;;;;;5050524;28;20108;-65
2023/11/13 05:02:19;;;;;;;8.60;3.63;;;179.50;2252.80;;;;;;5050117;28;20376;-65
2023/11/13 05:04:46;;;;;;;5.30;3.15;;;179.60;2252.80;;;;;;5050458;28;20051;-65
2023/11/13 05:07:12;;;;;;;6.90;3.63;;;179.70;2252.80;;;;;;5051959;28;20017;-68
2023/11/13 05:09:38;;;;;;;6.57;4.13;;;179.70;2252.80;;;;;;5052892;28;20021;-66
2023/11/13 05:12:04;;;;;;;7.60;3.95;;;179.70;2252.80;;;;;;5051768;28;20047;-69
2023/11/13 05:14:30;;;;;;;8.60;4.95;;;179.70;2252.80;;;;;;5051553;28;20031;-65
2023/11/13 05:16:56;;;;;;;9.13;4.10;;;179.70;2252.80;;;;;;5050475;28;20024;-61
2023/11/13 05:19:22;;;;;;;5.57;3.42;;;179.70;2252.80;;;;;;5050112;28;20029;-62
2023/11/13 05:21:48;;;;;;;6.93;4.03;;;179.70;2252.80;;;;;;5049965;28;20044;-60
2023/11/13 05:24:13;;;;;;;8.45;4.35;;;179.70;2252.80;;;;;;5049977;28;20029;-65
2023/11/13 05:26:39;;;;;;;11.25;5.60;;;179.70;2252.80;;;;;;5050080;28;20025;-63
2023/11/13 05:29:05;;;;;;;7.10;4.65;;;179.70;2252.80;;;;;;5050186;28;20085;-61
2023/11/13 05:31:30;;;;;;;8.48;5.25;;;179.70;2252.80;;;;;;5049324;28;20024;-64
2023/11/13 05:33:56;;;;;;;5.82;3.60;;;179.70;2252.80;;;;;;5049826;28;20033;-62
2023/11/13 05:36:22;;;;;;;7.95;4.45;;;179.70;2252.80;;;;;;5049861;28;20523;-61
2023/11/13 05:38:48;;;;;;;9.07;4.38;;;179.70;2252.80;;;;;;5049616;28;20028;-62
2023/11/13 05:41:13;;;;;;;6.63;4.07;;;179.70;2252.80;;;;;;5049943;28;20025;-62
2023/11/13 05:43:39;;;;;;;57.85;49.30;;;179.80;2252.80;;;;;;5049456;28;20387;-61
2023/11/13 05:46:06;;;;;;;11.73;8.75;;;179.70;2252.80;;;;;;5049881;28;20074;-63
2023/11/13 05:48:31;;;;;;;8.10;4.70;;;179.70;2252.80;;;;;;5049469;28;20029;-63
2023/11/13 05:50:59;;;;;;;9.52;5.75;;;179.70;2252.80;;;;;;5049606;28;20036;-64
2023/11/13 05:53:24;;;;;;;11.60;5.28;;;179.70;2252.80;;;;;;5049521;28;20028;-62
2023/11/13 05:55:50;;;;;;;9.68;5.88;;;179.70;2252.80;;;;;;5048986;28;20029;-64
2023/11/13 05:58:16;;;;;;;7.20;4.97;;;179.70;2252.80;;;;;;5049625;28;20044;-64
2023/11/13 06:00:43;;;;;;;10.43;5.82;;;179.70;2252.80;;;;;;5049747;28;20063;-62
2023/11/13 06:03:09;;;;;;;10.45;5.88;;;179.70;2252.80;;;;;;5049224;28;20049;-63
2023/11/13 06:05:35;;;;;;;52.25;47.00;;;179.80;2252.80;;;;;;5049481;28;20172;-63
2023/11/13 06:08:01;;;;;;;11.02;9.60;;;179.80;2252.80;;;;;;5049317;28;20032;-61
2023/11/13 06:10:26;;;;;;;11.18;8.60;;;179.80;2252.80;;;;;;5049643;28;20031;-62
2023/11/13 06:12:52;;;;;;;10.63;8.73;;;179.90;2252.80;;;;;;5050434;28;20032;-62
2023/11/13 06:15:19;;;;;;;12.25;8.65;;;179.90;2252.80;;;;;;5050200;28;20052;-64
2023/11/13 06:17:46;;;;;;;18.10;12.00;;;180.00;2252.80;;;;;;5049301;28;20481;-64
2023/11/13 06:20:13;;;;;;;18.33;14.23;;;180.00;2252.80;;;;;;5049028;28;20045;-64
2023/11/13 06:22:43;;;;;;;49.17;27.05;;;180.00;2252.80;;;;;;5049224;28;20040;-63
2023/11/13 06:25:12;;;;;;;72.70;40.88;;;204.80;2252.80;;;;;;5051469;28;20036;-63
2023/11/13 06:27:38;;;;;;;23.00;15.02;;;204.90;2252.80;;;;;;5053312;28;20041;-61
2023/11/13 06:30:05;;;;;;;10.90;6.50;;;205.00;2252.80;;;;;;5052718;28;20029;-60
2023/11/13 06:32:31;;;;;;;14.95;8.48;;;205.10;2252.80;;;;;;5051614;28;20040;-60
2023/11/13 06:34:57;;;;;;;461.50;309.42;;;205.20;2252.80;;;;;;5051144;28;20025;-67
2023/11/13 06:37:24;;;;;;;246.38;160.63;;;205.50;2252.80;;;;;;5051702;28;20029;-67
2023/11/13 06:39:49;;;;;;;90.30;58.35;;;205.70;2252.80;;;;;;5051388;28;20033;-66
2023/11/13 06:42:15;;;;;;;15.43;11.05;;;205.60;2252.80;;;;;;5051810;28;20471;-66
2023/11/13 06:44:43;;;;;;;19.88;13.30;;;205.60;2252.80;;;;;;5032994;28;20033;-65
2023/11/13 06:47:09;;;;;;;17.65;11.07;;;205.70;2252.80;;;;;;5050848;28;20063;-67
2023/11/13 06:49:38;;;;;;;54.13;31.73;;;205.70;2252.80;;;;;;5051506;28;20037;-67
2023/11/13 06:52:11;;;;;;;38.40;21.20;;;205.70;2252.80;;;;;;5051566;28;20455;-66
2023/11/13 06:54:36;;;;;;;18.33;11.63;;;205.70;2252.80;;;;;;5051520;28;20027;-64
2023/11/13 06:57:04;;;;;;;38.90;26.45;;;230.50;2252.80;;;;;;5051243;28;20442;-64
2023/11/13 06:59:30;;;;;;;24.50;15.65;;;230.60;2252.80;;;;;;5050643;28;20029;-65
2023/11/13 07:01:55;;;;;;;61.92;43.20;;;230.60;2252.80;;;;;;5050832;28;20478;-62
2023/11/13 07:04:21;;;;;;;38.00;25.75;;;230.60;2252.80;;;;;;5051024;28;20032;-61
2023/11/13 07:06:48;;;;;;;40.05;25.52;;;230.80;2252.80;;;;;;5050978;28;20353;-63
2023/11/13 07:09:14;;;;;;;14.98;10.25;;;230.90;2252.80;;;;;;5050941;28;20033;-61
2023/11/13 07:11:44;;;;;;;9.02;5.60;;;231.00;2252.80;;;;;;5050311;28;20040;-64
2023/11/13 07:14:10;;;;;;;13.30;9.55;;;230.90;2252.80;;;;;;5050880;28;20044;-62
2023/11/13 07:16:36;;;;;;;28.17;16.77;;;256.10;2252.80;;;;;;5050884;28;20053;-62
2023/11/13 07:19:05;;;;;;;16.85;11.25;;;256.00;2252.80;;;;;;5050981;28;20059;-63
2023/11/13 07:21:31;;;;;;;15.05;12.55;;;231.20;2252.80;;;;;;5050588;28;20091;-63
2023/11/13 07:24:03;;;;;;;20.95;11.13;;;256.00;2252.80;;;;;;5050452;28;20037;-64
2023/11/13 07:26:29;;;;;;;37.83;27.77;;;256.60;2252.80;;;;;;5050252;28;20052;-64
2023/11/13 07:28:55;;;;;;;67.82;45.00;;;256.90;2252.80;;;;;;5050649;28;20486;-62
2023/11/13 07:31:22;;;;;;;146.05;100.57;;;281.70;2278.40;;;;;;5050322;28;20084;-62
2023/11/13 07:33:49;;;;;;;183.80;131.57;;;281.90;2278.40;;;;;;5050526;28;20033;-63
2023/11/13 07:36:14;;;;;;;250.45;189.75;;;282.20;2278.40;;;;;;5050962;28;20082;-61
2023/11/13 07:38:43;;;;;;;260.67;169.75;;;282.30;2278.40;;;;;;5051827;28;20033;-63
2023/11/13 07:41:11;;;;;;;84.05;57.00;;;282.40;2278.40;;;;;;5051814;28;20033;-62
2023/11/13 07:43:44;;;;;;;122.82;87.82;;;282.50;2278.40;;;;;;5051697;28;20072;-63
2023/11/13 07:46:11;;;;;;;67.78;48.60;;;282.50;2278.40;;;;;;5051716;28;20048;-63
2023/11/13 07:48:40;;;;;;;34.85;23.15;;;282.50;2278.40;;;;;;5051804;28;20024;-63
2023/11/13 07:51:06;;;;;;;105.75;76.93;;;307.30;2304.00;;;;;;5051652;28;20032;-63
2023/11/13 07:53:35;;;;;;;88.65;56.85;;;307.30;2304.00;;;;;;5051325;28;20550;-65
2023/11/13 07:56:01;;;;;;;53.25;34.22;;;307.40;2304.00;;;;;;5051810;28;20083;-62
2023/11/13 07:58:27;;;;;;;63.05;47.08;;;307.60;2304.00;;;;;;5051581;28;20426;-65
2023/11/13 08:00:53;;;;;;;60.55;44.95;;;307.90;2304.00;;;;;;5051208;28;20029;-64
2023/11/13 08:03:20;;;;;;;52.13;41.70;;;308.00;2304.00;;;;;;5051206;28;20041;-62
2023/11/13 08:05:47;;;;;;;47.03;36.22;;;308.10;2304.00;;;;;;5051172;28;20078;-63
2023/11/13 08:08:14;;;;;;;64.72;51.47;;;333.00;2329.60;;;;;;5051068;28;20025;-61
2023/11/13 08:10:41;;;;;;;41.72;31.10;;;333.30;2329.60;;;;;;5050802;28;20024;-61
2023/11/13 08:13:07;;;;;;;29.75;23.15;;;333.40;2329.60;;;;;;5050777;28;20414;-64
2023/11/13 08:15:34;;;;;;;72.70;55.95;;;333.70;2329.60;;;;;;5050619;28;20074;-64
2023/11/13 08:18:00;;;;;;;71.70;51.20;;;358.50;2329.60;;;;;;5050871;28;20029;-64
2023/11/13 08:20:26;;;;;;;53.35;37.88;;;333.50;2329.60;;;;;;5065213;28;20037;-61
2023/11/13 08:22:56;;;;;;;34.13;27.45;;;358.70;2329.60;;;;;;5050554;28;20563;-64
2023/11/13 08:25:23;;;;;;;41.35;33.70;;;359.00;2329.60;;;;;;5050114;28;20143;-62
2023/11/13 08:27:52;;;;;;;52.60;36.60;;;358.70;2329.60;;;;;;5050120;28;20047;-64
2023/11/13 08:30:22;;;;;;;60.35;43.90;;;333.70;2329.60;;;;;;5049886;28;20112;-65
2023/11/13 08:32:52;;;;;;;60.83;42.25;;;333.70;2329.60;;;;;;5049990;28;20156;-64
2023/11/13 08:35:18;;;;;;;83.25;59.97;;;333.30;2329.60;;;;;;5050572;28;20021;-62
2023/11/13 08:37:48;;;;;;;70.13;55.50;;;358.70;2329.60;;;;;;5050855;28;20036;-64
2023/11/13 08:40:23;;;;;;;77.93;60.08;;;384.00;2329.60;;;;;;5050857;28;20040;-63
2023/11/13 08:42:50;;;;;;;55.00;40.30;;;410.10;2355.20;;;;;;5051834;28;20048;-64
2023/11/13 08:45:16;;;;;;;32.85;28.67;;;460.90;2252.80;;;;;;5052261;28;20025;-64
2023/11/13 08:47:47;;;;;;;51.97;44.03;;;486.70;2124.80;;;;;;5053862;28;20048;-65
2023/11/13 08:50:13;;;;;;;58.28;52.15;;;512.80;1920.00;;;;;;5054924;28;20106;-64
2023/11/13 08:52:43;;;;;;;52.53;46.38;;;563.60;1868.80;;;;;;5050575;28;20025;-66
2023/11/13 08:55:18;;;;;;;44.60;39.83;;;589.20;1766.40;;;;;;5050360;28;20107;-66
2023/11/13 08:57:45;;;;;;;45.97;41.38;;;614.70;1689.60;;;;;;5050505;28;20027;-64
2023/11/13 09:00:18;;;;;;;40.85;35.42;;;615.30;1612.80;;;;;;5032722;28;20041;-68
2023/11/13 09:02:46;;;;;;;66.22;56.33;;;614.50;1612.80;;;;;;5049626;28;20118;-65
2023/11/13 09:05:13;;;;;;;55.78;49.72;;;614.90;1612.80;;;;;;5050030;28;20025;-64
2023/11/13 09:07:41;;;;;;;40.60;36.55;;;615.20;1612.80;;;;;;5050082;28;20033;-62
2023/11/13 09:10:10;;;;;;;37.58;33.78;;;615.30;1638.40;;;;;;5049850;28;20049;-63
2023/11/13 09:12:39;;;;;;;85.30;76.43;;;640.20;1612.80;;;;;;5050090;28;20097;-62
2023/11/13 09:15:14;;;;;;;84.32;75.38;;;640.10;1587.20;;;;;;5049894;28;20375;-64
2023/11/13 09:17:45;;;;;;;62.13;55.53;;;614.90;1612.80;;;;;;5050049;28;20017;-63
2023/11/13 09:20:15;;;;;;;54.22;48.60;;;614.80;1638.40;;;;;;5049748;28;20528;-66
2023/11/13 09:22:43;;;;;;;49.28;44.22;;;589.40;1689.60;;;;;;5049679;28;20044;-63
2023/11/13 09:25:13;;;;;;;184.57;165.02;;;589.30;1689.60;;;;;;5049552;28;20017;-64
2023/11/13 09:27:43;;;;;;;109.55;97.80;;;563.90;1766.40;;;;;;5049744;28;20471;-63
2023/11/13 09:30:10;;;;;;;59.35;53.20;;;563.40;1792.00;;;;;;5049528;28;20025;-65
2023/11/13 09:32:39;;;;;;;67.40;60.08;;;538.30;1792.00;;;;;;5065410;28;20029;-65
2023/11/13 09:35:06;;;;;;;90.45;81.55;;;512.80;1817.60;;;;;;5050102;28;20070;-62
2023/11/13 09:37:32;;;;;;;96.10;86.30;;;512.40;1868.80;;;;;;5050403;28;20029;-65
2023/11/13 09:39:58;;;;;;;75.53;67.68;;;512.80;1843.20;;;;;;5050231;28;20040;-65
2023/11/13 09:42:27;;;;;;;76.93;68.78;;;512.90;1843.20;;;;;;5033946;28;20352;-63
2023/11/13 09:44:55;;;;;;;79.22;70.65;;;512.80;1843.20;;;;;;5046926;28;20056;-64
2023/11/13 09:47:28;;;;;;;72.07;64.20;;;512.80;1843.20;;;;;;5048958;28;20059;-64
2023/11/13 09:50:02;;;;;;;71.93;64.27;;;512.70;1843.20;;;;;;5049486;28;20016;-66
2023/11/13 09:52:30;;;;;;;75.10;67.13;;;512.20;1868.80;;;;;;5049236;28;20203;-63
2023/11/13 09:54:57;;;;;;;71.80;63.95;;;512.00;1894.40;;;;;;5048601;28;20091;-62
2023/11/13 09:57:24;;;;;;;65.68;57.72;;;512.40;1868.80;;;;;;5049282;28;20033;-67
2023/11/13 09:59:51;;;;;;;71.40;55.92;;;487.10;1894.40;;;;;;5047917;28;20024;-66
2023/11/13 10:02:20;;;;;;;77.07;62.60;;;486.50;1971.20;;;;;;5048374;28;20049;-66
2023/11/13 10:04:46;;;;;;;68.80;56.10;;;460.80;2048.00;;;;;;5030841;28;20021;-62
2023/11/13 10:07:15;;;;;;;59.58;50.55;;;436.10;2048.00;;;;;;5049604;28;20075;-61
2023/11/13 10:09:41;;;;;;;64.38;50.00;;;435.80;2073.60;;;;;;5048488;28;20017;-62
2023/11/13 10:12:09;;;;;;;77.35;55.75;;;435.40;2124.80;;;;;;5048239;28;20036;-63
2023/11/13 10:14:35;;;;;;;67.38;52.95;;;410.30;2201.60;;;;;;5048878;28;20025;-63
2023/11/13 10:17:01;;;;;;;63.22;46.95;;;410.20;2227.20;;;;;;5048498;28;20027;-62
2023/11/13 10:19:28;;;;;;;59.67;42.92;;;410.40;2227.20;;;;;;5048308;28;20028;-62
2023/11/13 10:21:56;;;;;;;58.35;43.80;;;410.00;2278.40;;;;;;5048379;28;20522;-64
2023/11/13 10:24:24;;;;;;;57.67;42.50;;;409.80;2355.20;;;;;;5048742;28;20120;-62
2023/11/13 10:26:57;;;;;;;55.00;41.25;;;409.70;2355.20;;;;;;5048519;28;20478;-66
2023/11/13 10:29:25;;;;;;;50.27;37.63;;;409.70;2355.20;;;;;;5048771;28;20036;-64
2023/11/13 10:31:52;;;;;;;43.83;32.47;;;409.90;2355.20;;;;;;5048425;28;20278;-62
2023/11/13 10:34:20;;;;;;;39.60;27.65;;;410.00;2355.20;;;;;;5048451;28;20159;-64
2023/11/13 10:37:11;;;;;;;40.85;27.67;;;409.90;2329.60;;;;;;5051415;28;20090;-64
2023/11/13 10:39:41;;;;;;;39.42;23.33;;;410.10;2355.20;;;;;;5054751;28;20467;-64
2023/11/13 10:42:26;;;;;;;33.60;23.83;;;410.20;2329.60;;;;;;5056859;28;20075;-64
2023/11/13 10:44:59;;;;;;;48.50;32.90;;;410.20;2304.00;;;;;;5055640;28;20039;-64
2023/11/13 10:47:33;;;;;;;34.33;23.42;;;410.30;2304.00;;;;;;5057418;28;20100;-63
2023/11/13 10:50:00;;;;;;;43.97;28.63;;;410.30;2278.40;;;;;;5052410;28;20078;-63
2023/11/13 10:52:28;;;;;;;38.08;23.75;;;410.40;2304.00;;;;;;5057047;28;20029;-62
2023/11/13 10:54:56;;;;;;;40.85;28.55;;;410.50;2278.40;;;;;;5059378;28;20082;-63
2023/11/13 10:57:25;;;;;;;23.30;17.15;;;435.20;2252.80;;;;;;5037317;28;20076;-64
2023/11/13 10:59:53;;;;;;;28.67;17.75;;;435.30;2227.20;;;;;;5048073;28;20021;-63
2023/11/13 11:02:33;;;;;;;19.27;13.00;;;435.30;2201.60;;;;;;5047878;28;20438;-63
2023/11/13 11:05:02;;;;;;;29.77;18.83;;;435.50;2176.00;;;;;;5046298;28;20017;-62
2023/11/13 11:07:31;;;;;;;26.60;17.95;;;435.40;2176.00;;;;;;5048136;28;20065;-62
2023/11/13 11:09:59;;;;;;;16.73;13.27;;;435.40;2150.40;;;;;;5030531;28;20622;-63
2023/11/13 11:12:35;;;;;;;18.13;11.60;;;435.30;2124.80;;;;;;5050832;28;20017;-65
2023/11/13 11:15:44;;;;;;;22.90;13.38;;;435.30;2124.80;;;;;;5050043;28;20036;-62
2023/11/13 11:18:41;;;;;;;32.55;25.33;;;435.40;2099.20;;;;;;5052296;28;20028;-63
2023/11/13 11:21:16;;;;;;;14.25;11.07;;;435.60;2048.00;;;;;;5033828;28;20404;-62
2023/11/13 11:24:02;;;;;;;28.73;13.30;;;435.80;2073.60;;;;;;5051980;28;20041;-63
2023/11/13 11:26:28;;;;;;;10.43;9.05;;;435.90;1996.80;;;;;;5051236;28;20119;-64
2023/11/13 11:28:54;;;;;;;32.05;21.02;;;436.00;2099.20;;;;;;5051848;28;20104;-63
2023/11/13 11:31:38;;;;;;;13.20;9.23;;;436.10;2022.40;;;;;;5050600;28;20040;-62
2023/11/13 11:34:07;;;;;;;;;;;436.10;1996.80;;;;;;5052195;28;20040;-64
2023/11/13 11:36:43;;;;;;;14.60;10.27;;;436.10;1971.20;;;;;;5051598;28;19917;-64
2023/11/13 11:39:21;;;;;;;16.83;9.10;;;436.00;1996.80;;;;;;5051756;28;20475;-66
2023/11/13 11:41:51;;;;;;;10.73;7.35;;;435.90;2022.40;;;;;;5051538;28;20033;-64
2023/11/13 11:44:27;;;;;;;6.68;4.07;;;435.90;1996.80;;;;;;5051444;28;20028;-63
2023/11/13 11:46:54;;;;;;;3.75;2.08;;;436.00;1971.20;;;;;;5051725;28;20029;-66
2023/11/13 11:49:24;;;;;;;4.50;1.92;;;460.80;1996.80;;;;;;5051505;28;20040;-64
2023/11/13 11:51:51;;;;;;;9.90;5.10;;;460.80;1996.80;;;;;;5051262;28;20482;-64
2023/11/13 11:54:17;;;;;;;6.10;3.75;;;460.90;1971.20;;;;;;5051457;28;20060;-63
2023/11/13 11:57:03;;;;;;;3.83;2.33;;;461.10;1971.20;;;;;;5051379;28;20041;-65
2023/11/13 11:59:30;;;;;;;5.18;4.75;;;461.00;1945.60;;;;;;5051349;28;20029;-64
2023/11/13 12:02:03;;;;;;;5.72;3.40;;;461.00;1945.60;;;;;;5050368;28;20045;-63
2023/11/13 12:04:33;;;;;;;6.00;1.88;;;461.00;1971.20;;;;;;5051286;28;20403;-63
2023/11/13 12:07:00;;;;;;;7.55;2.47;;;461.20;1945.60;;;;;;5051062;28;20041;-61